createdAt,value
2019-05-15T00:02:33.450Z,2.27
2019-05-15T00:05:26.249Z,1.42
2019-05-15T00:08:18.155Z,1.62
2019-05-15T00:11:08.580Z,1.80
2019-05-15T00:14:01.321Z,1.50
2019-05-15T00:16:54.378Z,1.42
2019-05-15T00:19:48.618Z,1.70
2019-05-15T00:22:39.987Z,1.57
2019-05-15T00:25:32.780Z,2.22
2019-05-15T00:28:28.046Z,2.27
2019-05-15T00:31:19.655Z,2.20
2019-05-15T00:34:12.991Z,2.75
2019-05-15T00:37:05.516Z,1.92
2019-05-15T00:39:59.189Z,2.65
2019-05-15T00:42:51.112Z,1.40
2019-05-15T00:45:44.498Z,2.67
2019-05-15T00:48:44.136Z,1.72
2019-05-15T00:51:38.983Z,1.90
2019-05-15T00:54:31.028Z,2.60
2019-05-15T00:57:24.329Z,1.98
2019-05-15T01:00:18.664Z,2.87
2019-05-15T01:03:22.219Z,1.65
2019-05-15T01:06:15.028Z,2.77
2019-05-15T01:09:04.471Z,1.50
2019-05-15T01:11:58.673Z,2.80
2019-05-15T01:14:50.603Z,2.50
2019-05-15T01:17:43.916Z,1.90
2019-05-15T01:20:39.046Z,3.00
2019-05-15T01:23:28.062Z,2.30
2019-05-15T01:26:19.089Z,3.10
2019-05-15T01:29:12.561Z,1.62
2019-05-15T01:32:05.608Z,1.10
2019-05-15T01:34:58.057Z,1.50
2019-05-15T01:37:50.698Z,2.27
2019-05-15T01:40:43.751Z,2.17
2019-05-15T01:43:38.119Z,2.55
2019-05-15T01:46:29.868Z,1.67
2019-05-15T01:49:22.663Z,2.30
2019-05-15T01:52:15.723Z,1.60
2019-05-15T01:55:09.469Z,1.60
2019-05-15T01:58:02.855Z,1.40
2019-05-15T02:00:55.914Z,1.40
2019-05-15T02:03:49.441Z,2.02
2019-05-15T02:06:42.280Z,2.95
2019-05-15T02:09:35.341Z,3.87
2019-05-15T02:12:28.582Z,3.30
2019-05-15T02:15:21.960Z,3.22
2019-05-15T02:18:15.019Z,3.45
2019-05-15T02:21:10.310Z,3.00
2019-05-15T02:24:02.153Z,2.40
2019-05-15T02:26:58.664Z,3.20
2019-05-15T02:30:13.027Z,3.30
2019-05-15T02:32:50.223Z,2.37
2019-05-15T02:35:43.598Z,1.70
2019-05-15T02:38:40.416Z,3.50
2019-05-15T02:41:29.988Z,1.65
2019-05-15T02:44:22.249Z,2.12
2019-05-15T02:47:15.306Z,2.17
2019-05-15T02:50:10.587Z,2.33
2019-05-15T02:53:01.163Z,1.52
2019-05-15T02:55:54.474Z,3.27
2019-05-15T02:58:49.152Z,1.57
2019-05-15T03:01:39.957Z,1.72
2019-05-15T03:04:29.493Z,3.75
2019-05-15T03:07:19.412Z,3.00
2019-05-15T03:10:09.411Z,3.40
2019-05-15T03:13:01.035Z,1.35
2019-05-15T03:15:50.262Z,3.00
2019-05-15T03:18:39.940Z,3.33
2019-05-15T03:21:32.527Z,1.80
2019-05-15T03:24:21.993Z,2.72
2019-05-15T03:27:15.050Z,3.58
2019-05-15T03:30:13.696Z,3.47
2019-05-15T03:33:09.218Z,1.37
2019-05-15T03:36:03.151Z,2.95
2019-05-15T03:38:54.456Z,1.90
2019-05-15T03:41:43.631Z,3.65
2019-05-15T03:44:39.059Z,1.92
2019-05-15T03:47:30.143Z,3.77
2019-05-15T03:50:23.349Z,3.80
2019-05-15T03:53:19.238Z,2.00
2019-05-15T03:56:10.216Z,2.65
2019-05-15T03:59:03.021Z,2.25
2019-05-15T04:01:56.074Z,2.00
2019-05-15T04:04:50.149Z,2.70
2019-05-15T04:07:39.742Z,1.90
2019-05-15T04:10:28.818Z,3.30
2019-05-15T04:13:21.896Z,3.58
2019-05-15T04:16:14.704Z,3.05
2019-05-15T04:19:09.675Z,2.58
2019-05-15T04:22:01.068Z,3.95
2019-05-15T04:24:54.119Z,3.20
2019-05-15T04:27:49.291Z,3.70
2019-05-15T04:30:39.727Z,3.10
2019-05-15T04:33:32.777Z,3.30
2019-05-15T04:36:29.368Z,1.65
2019-05-15T04:39:20.684Z,2.15
2019-05-15T04:42:14.773Z,2.10
2019-05-15T04:45:04.080Z,2.77
2019-05-15T04:47:58.805Z,3.80
2019-05-15T04:50:50.131Z,1.90
2019-05-15T04:53:43.147Z,1.50
2019-05-15T04:56:44.651Z,1.95
2019-05-15T04:59:33.935Z,1.70
2019-05-15T05:02:31.064Z,3.42
2019-05-15T05:05:19.975Z,3.50
2019-05-15T05:08:13.042Z,2.85
2019-05-15T05:11:06.089Z,2.17
2019-05-15T05:13:59.224Z,2.40
2019-05-15T05:16:51.945Z,1.90
2019-05-15T05:19:45.004Z,3.70
2019-05-15T05:22:38.924Z,2.75
2019-05-15T05:25:29.322Z,1.90
2019-05-15T05:28:18.653Z,3.52
2019-05-15T05:31:14.120Z,2.27
2019-05-15T05:34:04.394Z,2.15
2019-05-15T05:36:58.963Z,2.20
2019-05-15T05:39:50.247Z,3.55
2019-05-15T05:42:43.047Z,3.05
2019-05-15T05:45:38.207Z,2.70
2019-05-15T05:48:29.371Z,1.72
2019-05-15T05:51:23.241Z,1.80
2019-05-15T05:54:18.225Z,1.87
2019-05-15T05:57:09.364Z,1.72
2019-05-15T06:00:03.440Z,2.10
2019-05-15T06:02:59.001Z,1.67
2019-05-15T06:05:49.845Z,1.95
2019-05-15T06:09:38.076Z,2.37
2019-05-15T06:12:28.230Z,2.00
2019-05-15T06:15:20.167Z,2.30
2019-05-15T06:18:13.230Z,1.98
2019-05-15T06:21:08.803Z,2.05
2019-05-15T06:24:13.116Z,2.92
2019-05-15T06:27:08.142Z,2.22
2019-05-15T06:30:01.325Z,2.52
2019-05-15T06:33:05.716Z,2.00
2019-05-15T06:35:48.890Z,1.85
2019-05-15T06:38:40.234Z,1.90
2019-05-15T06:41:36.106Z,1.70
2019-05-15T06:44:28.917Z,1.60
2019-05-15T06:50:29.986Z,1.40
2019-05-15T06:53:33.423Z,1.20
2019-05-15T06:56:28.208Z,1.40
2019-05-15T06:59:19.022Z,1.45
2019-05-15T07:02:21.556Z,1.20
2019-05-15T07:05:14.351Z,1.62
2019-05-15T07:08:09.068Z,1.60
2019-05-15T07:11:00.458Z,1.55
2019-05-15T07:13:54.279Z,1.22
2019-05-15T07:16:48.815Z,1.10
2019-05-15T07:19:40.136Z,1.52
2019-05-15T07:22:33.706Z,1.10
2019-05-15T07:25:29.200Z,1.30
2019-05-15T07:28:20.591Z,1.30
2019-05-15T07:31:13.898Z,1.10
2019-05-15T07:34:08.323Z,1.27
2019-05-15T07:37:00.018Z,1.40
2019-05-15T07:39:53.072Z,1.10
2019-05-15T07:42:45.872Z,1.55
2019-05-15T07:45:52.283Z,1.30
2019-05-15T07:48:49.162Z,1.30
2019-05-15T07:51:41.673Z,1.37
2019-05-15T07:54:38.316Z,0.90
2019-05-15T07:57:30.599Z,1.62
2019-05-15T08:00:19.817Z,1.60
2019-05-15T08:03:13.383Z,1.07
2019-05-15T08:06:08.583Z,1.40
2019-05-15T08:08:59.507Z,1.42
2019-05-15T08:11:52.296Z,1.10
2019-05-15T08:14:47.406Z,1.35
2019-05-15T08:17:59.177Z,1.20
2019-05-15T08:20:31.466Z,0.93
2019-05-15T08:23:24.520Z,1.25
2019-05-15T08:26:17.869Z,1.37
2019-05-15T08:29:10.638Z,1.30
2019-05-15T08:32:03.697Z,1.20
2019-05-15T08:35:03.919Z,1.22
2019-05-15T08:37:58.094Z,1.05
2019-05-15T08:40:49.769Z,1.32
2019-05-15T08:43:42.834Z,1.30
2019-05-15T08:46:31.987Z,1.27
2019-05-15T08:49:21.249Z,1.22
2019-05-15T08:52:14.315Z,1.12
2019-05-15T08:55:08.578Z,1.55
2019-05-15T08:58:07.765Z,1.10
2019-05-15T09:00:53.479Z,1.10
2019-05-15T09:03:48.682Z,1.07
2019-05-15T09:06:41.295Z,1.00
2019-05-15T09:09:32.906Z,1.47
2019-05-15T09:12:29.251Z,1.20
2019-05-15T09:15:21.064Z,1.52
2019-05-15T09:18:22.060Z,1.20
2019-05-15T09:21:15.373Z,0.90
2019-05-15T09:24:09.453Z,1.00
2019-05-15T09:27:01.251Z,1.50
2019-05-15T09:29:55.309Z,1.32
2019-05-15T09:32:48.666Z,1.20
2019-05-15T09:35:41.417Z,1.00
2019-05-15T09:38:34.475Z,0.70
2019-05-15T09:41:28.664Z,1.00
2019-05-15T09:44:22.044Z,1.20
2019-05-15T09:47:13.657Z,1.00
2019-05-15T09:50:08.456Z,1.10
2019-05-15T09:53:00.007Z,1.17
2019-05-15T09:55:49.767Z,0.88
2019-05-15T09:58:38.884Z,1.30
2019-05-15T10:01:32.778Z,1.47
2019-05-15T10:04:28.477Z,1.22
2019-05-15T10:07:19.377Z,1.40
2019-05-15T10:10:12.982Z,1.40
2019-05-15T10:13:05.778Z,1.30
2019-05-15T10:15:58.722Z,1.20
2019-05-15T10:18:51.634Z,1.42
2019-05-15T10:21:44.426Z,1.52
2019-05-15T10:24:37.224Z,1.15
2019-05-15T10:27:30.286Z,1.55
2019-05-15T10:30:23.338Z,1.42
2019-05-15T10:33:12.563Z,1.02
2019-05-15T10:36:05.351Z,1.35
2019-05-15T10:38:59.204Z,1.20
2019-05-15T10:41:51.720Z,1.30
2019-05-15T10:44:45.034Z,0.90
2019-05-15T10:47:38.850Z,0.90
2019-05-15T10:50:30.889Z,0.82
2019-05-15T10:53:35.210Z,1.10
2019-05-15T10:56:29.145Z,1.07
2019-05-15T10:59:18.271Z,0.90
2019-05-15T11:02:10.544Z,1.02
2019-05-15T11:05:03.337Z,1.30
2019-05-15T11:07:58.733Z,1.15
2019-05-15T11:10:50.229Z,1.20
2019-05-15T11:13:43.016Z,1.30
2019-05-15T11:16:38.863Z,0.93
2019-05-15T11:19:35.636Z,1.20
2019-05-15T11:22:22.452Z,0.90
2019-05-15T11:25:15.249Z,1.00
2019-05-15T11:28:09.063Z,1.42
2019-05-15T11:31:02.126Z,1.40
2019-05-15T11:33:55.176Z,0.93
2019-05-15T11:36:48.605Z,1.50
2019-05-15T11:39:44.551Z,0.90
2019-05-15T11:42:29.997Z,1.30
2019-05-15T11:45:20.490Z,1.70
2019-05-15T11:48:13.545Z,0.93
2019-05-15T11:51:09.821Z,0.90
2019-05-15T11:54:02.729Z,1.67
2019-05-15T11:56:59.456Z,0.88
2019-05-15T11:59:55.392Z,1.02
2019-05-15T12:02:50.855Z,1.20
2019-05-15T12:05:43.661Z,1.20
2019-05-15T12:08:38.519Z,0.82
2019-05-15T12:11:36.674Z,1.00
2019-05-15T12:14:23.338Z,1.30
2019-05-15T12:17:18.996Z,1.02
2019-05-15T12:20:07.803Z,1.27
2019-05-15T12:22:59.688Z,1.07
2019-05-15T12:25:53.779Z,1.30
2019-05-15T12:28:48.886Z,0.90
2019-05-15T12:31:39.882Z,1.30
2019-05-15T12:34:33.712Z,0.82
2019-05-15T12:37:28.481Z,1.20
2019-05-15T13:00:34.791Z,0.82
2019-05-15T13:03:29.137Z,0.82
2019-05-15T13:06:21.672Z,1.10
2019-05-15T13:09:19.372Z,1.00
2019-05-15T13:12:10.860Z,1.17
2019-05-15T13:15:03.914Z,0.95
2019-05-15T13:17:59.686Z,0.90
2019-05-15T13:20:50.534Z,0.98
2019-05-15T13:23:43.335Z,1.50
2019-05-15T13:26:38.312Z,1.15
2019-05-15T13:29:29.961Z,1.70
2019-05-15T13:32:28.313Z,1.40
2019-05-15T13:35:18.635Z,1.50
2019-05-15T13:38:12.715Z,1.45
2019-05-15T13:41:05.510Z,1.10
2019-05-15T13:43:54.983Z,1.00
2019-05-15T13:46:49.577Z,1.30
2019-05-15T13:49:42.378Z,1.17
2019-05-15T13:52:35.177Z,1.40
2019-05-15T13:55:35.847Z,0.80
2019-05-15T13:58:21.038Z,0.80
2019-05-15T14:01:14.090Z,0.47
2019-05-15T14:04:08.556Z,1.05
2019-05-15T14:06:59.947Z,0.78
2019-05-15T14:09:52.998Z,0.80
2019-05-15T14:12:47.700Z,1.00
2019-05-15T14:15:38.855Z,0.80
2019-05-15T14:18:31.656Z,1.00
2019-05-15T14:21:24.713Z,1.55
2019-05-15T14:24:18.404Z,2.12
2019-05-15T14:27:10.573Z,1.90
2019-05-15T14:29:59.816Z,1.27
2019-05-15T14:32:55.155Z,1.52
2019-05-15T14:35:44.013Z,1.52
2019-05-15T14:38:37.922Z,1.55
2019-05-15T14:41:30.740Z,1.32
2019-05-15T14:47:52.433Z,1.20
2019-05-15T14:50:41.641Z,1.25
2019-05-15T14:53:42.381Z,0.95
2019-05-15T14:56:35.431Z,1.40
2019-05-15T14:59:28.748Z,1.20
2019-05-15T15:02:21.804Z,1.20
2019-05-15T15:05:15.884Z,1.20
2019-05-15T15:08:24.038Z,1.30
2019-05-15T15:11:02.506Z,1.10
2019-05-15T15:13:57.833Z,1.07
2019-05-15T15:16:49.040Z,1.02
2019-05-15T15:19:41.697Z,0.80
2019-05-15T15:22:42.156Z,0.93
2019-05-15T15:25:35.220Z,1.00
2019-05-15T15:28:28.776Z,0.90
2019-05-15T15:31:24.390Z,0.98
2019-05-15T15:34:19.617Z,1.75
2019-05-15T15:37:10.248Z,1.12
2019-05-15T15:40:03.560Z,1.05
2019-05-15T15:42:58.022Z,1.00
2019-05-15T15:45:49.416Z,1.10
2019-05-15T15:48:43.758Z,1.00
2019-05-15T15:51:45.770Z,1.00
2019-05-15T15:54:39.554Z,0.90
2019-05-15T15:57:32.135Z,1.00
2019-05-15T16:00:24.958Z,1.02
2019-05-15T16:03:19.391Z,1.30
2019-05-15T16:06:11.304Z,1.10
2019-05-15T16:09:04.369Z,1.20
2019-05-15T16:11:53.811Z,0.90
2019-05-15T16:14:42.996Z,0.82
2019-05-15T16:17:38.397Z,1.15
2019-05-15T16:20:29.672Z,1.10
2019-05-15T16:23:22.728Z,0.90
2019-05-15T16:29:21.647Z,1.10
2019-05-15T16:32:19.170Z,1.02
2019-05-15T16:35:08.607Z,1.10
2019-05-15T16:38:01.575Z,1.00
2019-05-15T16:40:54.383Z,1.05
2019-05-15T16:43:48.582Z,1.40
2019-05-15T16:46:40.491Z,0.90
2019-05-15T16:49:33.286Z,1.00
2019-05-15T16:52:30.500Z,1.10
2019-05-15T16:55:19.400Z,0.80
2019-05-15T16:58:12.978Z,1.07
2019-05-15T17:01:06.037Z,1.10
2019-05-15T17:03:59.078Z,0.93
2019-05-15T17:06:52.138Z,1.25
2019-05-15T17:09:44.938Z,1.10
2019-05-15T17:12:38.751Z,0.90
2019-05-15T17:15:27.992Z,0.95
2019-05-15T17:18:27.702Z,1.30
2019-05-15T17:21:20.747Z,1.52
2019-05-15T17:24:13.543Z,1.55
2019-05-15T17:27:12.292Z,1.55
2019-05-15T17:30:05.033Z,1.60
2019-05-15T17:32:58.348Z,1.55
2019-05-15T17:35:51.403Z,1.62
2019-05-15T17:38:48.674Z,1.70
2019-05-15T17:41:39.033Z,1.70
2019-05-15T17:44:30.315Z,1.87
2019-05-15T17:47:23.623Z,1.60
2019-05-15T17:50:18.896Z,2.22
2019-05-15T17:53:09.742Z,1.72
2019-05-15T17:56:02.794Z,1.90
2019-05-15T17:58:58.026Z,1.62
2019-05-15T18:01:52.744Z,2.08
2019-05-15T18:04:48.049Z,1.70
2019-05-15T18:07:39.625Z,1.57
2019-05-15T18:10:32.936Z,1.57
2019-05-15T18:13:25.737Z,1.60
2019-05-15T18:16:18.794Z,1.70
2019-05-15T18:19:11.849Z,2.00
2019-05-15T18:22:04.908Z,1.65
2019-05-15T18:24:58.728Z,1.70
2019-05-15T18:27:51.537Z,1.87
2019-05-15T18:30:44.586Z,1.90
2019-05-15T18:33:39.791Z,2.55
2019-05-15T18:36:33.002Z,1.77
2019-05-15T18:39:28.323Z,2.17
2019-05-15T18:42:19.627Z,2.08
2019-05-15T18:45:09.596Z,2.00
2019-05-15T18:47:59.954Z,1.70
2019-05-15T18:50:54.185Z,1.95
2019-05-15T18:53:48.258Z,1.80
2019-05-15T18:56:38.761Z,1.80
2019-05-15T18:59:31.560Z,1.82
2019-05-15T19:02:24.873Z,1.70
2019-05-15T19:05:15.617Z,1.67
2019-05-15T19:08:08.939Z,1.92
2019-05-15T19:11:07.884Z,1.62
2019-05-15T19:14:01.193Z,1.67
2019-05-15T19:16:48.630Z,2.00
2019-05-15T19:19:44.233Z,1.77
2019-05-15T19:22:40.428Z,2.00
2019-05-15T19:25:28.597Z,2.00
2019-05-15T19:28:19.817Z,2.15
2019-05-15T19:31:23.137Z,2.25
2019-05-15T19:34:08.356Z,2.02
2019-05-15T19:37:08.456Z,1.87
2019-05-15T19:40:09.198Z,2.25
2019-05-15T19:43:04.109Z,2.27
2019-05-15T19:45:58.917Z,2.45
2019-05-15T19:48:54.763Z,1.87
2019-05-15T19:52:11.372Z,2.85
2019-05-15T19:55:17.571Z,2.12
2019-05-15T19:58:11.087Z,2.60
2019-05-15T20:01:01.546Z,3.00
2019-05-15T20:03:53.306Z,2.67
2019-05-15T20:06:47.969Z,3.00
2019-05-15T20:09:39.687Z,2.35
2019-05-15T20:12:40.689Z,2.85
2019-05-15T20:15:33.737Z,2.15
2019-05-15T20:18:35.497Z,2.17
2019-05-15T20:21:24.787Z,2.58
2019-05-15T20:24:20.026Z,2.37
2019-05-15T20:27:58.702Z,2.70
2019-05-15T20:30:52.781Z,2.55
2019-05-15T20:33:48.231Z,2.67
2019-05-15T20:36:40.936Z,2.52
2019-05-15T20:39:34.512Z,2.50
2019-05-15T20:42:31.142Z,2.37
2019-05-15T20:45:24.200Z,2.58
2019-05-15T20:48:18.474Z,2.52
2019-05-15T20:51:11.335Z,3.00
2019-05-15T20:54:04.137Z,3.30
2019-05-15T20:56:59.761Z,2.60
2019-05-15T20:59:54.089Z,2.83
2019-05-15T21:02:48.611Z,3.00
2019-05-15T21:05:40.209Z,3.08
2019-05-15T21:08:51.954Z,3.33
2019-05-15T21:12:00.872Z,3.15
2019-05-15T21:14:54.189Z,3.15
2019-05-15T21:17:57.641Z,2.77
2019-05-15T21:20:43.114Z,3.92
2019-05-15T21:23:38.678Z,3.67
2019-05-15T21:26:49.456Z,3.12
2019-05-15T21:29:42.759Z,3.60
2019-05-15T21:32:38.634Z,3.02
2019-05-15T21:35:31.698Z,2.70
2019-05-15T21:38:24.493Z,3.25
2019-05-15T21:41:21.137Z,3.00
2019-05-15T21:44:24.681Z,2.70
2019-05-15T21:47:27.980Z,3.20
2019-05-15T21:50:19.513Z,3.15
2019-05-15T21:53:11.786Z,2.62
2019-05-15T21:56:05.360Z,3.02
2019-05-15T21:59:01.017Z,2.87
2019-05-15T22:01:51.720Z,3.20
2019-05-15T22:04:54.800Z,3.40
2019-05-15T22:07:38.865Z,3.25
2019-05-15T22:10:31.914Z,2.75
2019-05-15T22:13:24.969Z,2.60
2019-05-15T22:16:18.391Z,2.98
2019-05-15T22:19:10.831Z,3.10
2019-05-15T22:22:03.643Z,2.80
2019-05-15T22:24:56.695Z,2.08
2019-05-15T22:27:50.009Z,2.80
2019-05-15T22:30:42.802Z,2.87
2019-05-15T22:33:39.692Z,3.00
2019-05-15T22:36:33.009Z,2.42
2019-05-15T22:39:27.938Z,3.17
2019-05-15T22:42:18.866Z,2.77
2019-05-15T22:45:11.982Z,3.25
2019-05-15T22:47:59.467Z,3.05
2019-05-15T22:50:52.394Z,3.52
2019-05-15T22:53:45.449Z,3.25
2019-05-15T22:56:39.785Z,3.30
2019-05-15T22:59:33.101Z,3.40
2019-05-15T23:02:27.176Z,3.08
2019-05-15T23:05:27.979Z,2.90
2019-05-15T23:08:13.289Z,2.87
2019-05-15T23:11:00.748Z,3.42
2019-05-15T23:13:54.799Z,3.22
2019-05-15T23:16:48.407Z,2.70
2019-05-15T23:19:41.425Z,2.92
2019-05-15T23:22:35.500Z,2.60
2019-05-15T23:25:32.392Z,2.37
2019-05-15T23:28:25.195Z,3.37
2019-05-15T23:31:18.885Z,2.33
2019-05-15T23:34:11.047Z,2.67
2019-05-15T23:37:04.362Z,2.80
2019-05-15T23:39:57.983Z,3.08
2019-05-15T23:42:51.761Z,2.25
2019-05-15T23:45:44.814Z,2.62
2019-05-15T23:48:38.188Z,3.02
2019-05-15T23:51:30.668Z,2.52
2019-05-15T23:54:25.006Z,2.92
2019-05-15T23:57:14.215Z,2.95
